EFMA

Mariehamn Airport

Finland
METAR EFMA 210350Z AUTO 35004KT CAVOK 19/18 Q1006
Observed Flight Rules
Jul-21 @ 03:50 UTC (32 minutes ago) Visual Flight Rules
Wind Visibility Clouds
350° at 4 knots 10,000+ meters
  • Clear skies
Temperatures Readings
Current 19°C / 66°F
Dewpoint 18°C / 64°F
Humidity 94%
Altimeter 29.7" Hg
Pressure 1006 hPa
Elevation 6
METAR EFMA 210350Z AUTO 35004KT CAVOK 19/18 Q1006
Observed Flight Rules
Jul-21 @ 03:50 UTC
(32 minutes ago)
VFR
Wind Visibility
350° at 4 knots 10,000+ meters
Clouds
  • Clear skies
Temperature Dewpoint
19°C / 66°F 18°C / 64°F
Humidity Altimeter Pressure
94% 29.7" Hg 1006 hPa